This is the latest recevied weather packets stored in our database for station/object PP5CI-13. If no packets are shown the sender has not sent any weather packets the latest 10 day(s).
| Time | Temp. | Humidity | Pressure | Rain* | Wind** | Luminosity | Snow |
|---|---|---|---|---|---|---|---|
| 1787932234 | 29.44° C | 74% | 1008.2 hPa | 0 mm | - | - | - |
| 1787931622 | 28.33° C | 77% | 1008.2 hPa | 0 mm | - | - | - |
| 1787931028 | 27.22° C | 80% | 1009.2 hPa | 0 mm | - | - | - |
| 1787930434 | 26.67° C | 82% | 1009.2 hPa | 0 mm | - | - | - |
| 1787929822 | 26.11° C | 83% | 1009.2 hPa | 0 mm | - | - | - |
| 1787929222 | 26.11° C | 84% | 1009.2 hPa | 0 mm | - | - | - |
| 1787928634 | 26.67° C | 82% | 1009.2 hPa | 0 mm | - | - | - |
| 1787928022 | 26.67° C | 82% | 1009.2 hPa | 0 mm | - | - | - |
| 1787927438 | 28.33° C | 76% | 1009.2 hPa | 0 mm | - | - | - |
| 1787926822 | 29.44° C | 73% | 1009.2 hPa | 0 mm | - | - | - |
| 1787926222 | 28.89° C | 74% | 1009.2 hPa | 0 mm | - | - | - |
| 1787925630 | 28.89° C | 75% | 1009.2 hPa | 0 mm | - | - | - |
| 1787925033 | 28.33° C | 77% | 1009.2 hPa | 0 mm | - | - | - |
| 1787924421 | 27.22° C | 80% | 1009.6 hPa | 0 mm | - | - | - |
| 1787923827 | 26.11° C | 84% | 1010.5 hPa | 0 mm | - | - | - |
| 1787923222 | 25° C | 86% | 1011.2 hPa | 0 mm | - | - | - |
| 1787922622 | 25° C | 88% | 1011.2 hPa | 0 mm | - | - | - |
| 1787922022 | 23.33° C | 92% | 1011.2 hPa | 0 mm | - | - | - |
| 1787921433 | 22.78° C | 95% | 1010.2 hPa | 0 mm | - | - | - |
| 1787920821 | 21.67° C | 98% | 1011.2 hPa | 0 mm | - | - | - |
| 1787920227 | 21.67° C | 99% | 1010.2 hPa | 0 mm | - | - | - |
| 1787919630 | 21.11° C | 99% | 1011.2 hPa | 0 mm | - | - | - |
| 1787919022 | 21.11° C | 99% | 1011.2 hPa | 0 mm | - | - | - |
| 1787918422 | 21.11° C | 99% | 1011.2 hPa | 0 mm | - | - | - |
| 1787917838 | 21.11° C | 99% | 1011.2 hPa | 0 mm | - | - | - |
* Rain latest hour (hover to see other rain measurements)
** Current wind speed in m/s (hover to see current wind gust speed)